createdAt,value
2023-03-02T00:04:50.432Z,1.60
2023-03-02T00:10:06.956Z,1.50
2023-03-02T00:15:22.583Z,1.40
2023-03-02T00:20:38.962Z,1.30
2023-03-02T00:25:55.061Z,1.40
2023-03-02T00:31:11.453Z,1.50
2023-03-02T00:36:27.183Z,1.70
2023-03-02T00:41:42.714Z,1.70
2023-03-02T00:46:58.708Z,1.70
2023-03-02T00:52:14.899Z,1.80
2023-03-02T00:57:30.519Z,1.80
2023-03-02T01:02:46.097Z,1.70
2023-03-02T01:08:01.911Z,1.80
2023-03-02T01:13:18.520Z,1.90
2023-03-02T01:18:38.875Z,2.00
2023-03-02T01:23:54.418Z,2.00
2023-03-02T01:29:11.738Z,1.90
2023-03-02T01:34:27.503Z,1.70
2023-03-02T01:39:42.827Z,1.80
2023-03-02T01:44:59.749Z,1.90
2023-03-02T01:50:23.447Z,1.80
2023-03-02T01:55:40.216Z,1.80
2023-03-02T02:00:58.007Z,1.70
2023-03-02T02:06:24.783Z,1.70
2023-03-02T02:11:40.407Z,1.80
2023-03-02T02:16:56.788Z,1.70
2023-03-02T02:22:15.732Z,1.60
2023-03-02T02:27:34.320Z,1.60
2023-03-02T02:32:53.295Z,1.50
2023-03-02T02:38:11.612Z,1.50
2023-03-02T02:43:31.238Z,1.50
2023-03-02T02:48:46.816Z,1.60
2023-03-02T02:54:04.338Z,1.60
2023-03-02T02:59:29.201Z,1.70
2023-03-02T03:04:44.889Z,1.60
2023-03-02T03:10:24.769Z,1.50
2023-03-02T03:15:40.995Z,1.40
2023-03-02T03:20:56.644Z,1.40
2023-03-02T03:26:12.352Z,1.40
2023-03-02T03:31:28.971Z,1.40
2023-03-02T03:36:44.642Z,1.40
2023-03-02T03:42:00.580Z,1.40
2023-03-02T03:47:16.004Z,1.50
2023-03-02T03:52:31.857Z,1.50
2023-03-02T03:57:47.715Z,1.50
2023-03-02T04:03:03.778Z,1.80
2023-03-02T04:08:20.011Z,1.80
2023-03-02T04:13:35.536Z,1.70
2023-03-02T04:18:50.988Z,1.90
2023-03-02T04:24:08.067Z,2.00
2023-03-02T04:29:24.172Z,2.00
2023-03-02T04:34:39.601Z,2.00
2023-03-02T04:39:55.767Z,2.00
2023-03-02T04:45:12.022Z,1.90
2023-03-02T04:50:27.724Z,2.00
2023-03-02T04:55:43.718Z,2.00
2023-03-02T05:01:02.642Z,1.80
2023-03-02T05:06:21.994Z,1.60
2023-03-02T05:11:38.590Z,1.50
2023-03-02T05:16:54.592Z,1.40
2023-03-02T05:22:10.422Z,1.50
2023-03-02T05:27:25.882Z,1.60
2023-03-02T05:32:41.816Z,1.90
2023-03-02T05:37:58.051Z,1.90
2023-03-02T05:43:17.796Z,1.80
2023-03-02T05:48:33.319Z,2.00
2023-03-02T05:53:49.535Z,2.00
2023-03-02T05:59:05.241Z,2.00
2023-03-02T06:04:21.108Z,2.00
2023-03-02T06:09:38.417Z,2.00
2023-03-02T06:14:54.196Z,2.00
2023-03-02T06:20:11.912Z,2.00
2023-03-02T06:25:27.895Z,1.90
2023-03-02T06:30:43.160Z,1.60
2023-03-02T06:35:58.863Z,1.60
2023-03-02T06:41:14.905Z,1.70
2023-03-02T06:46:30.780Z,1.90
2023-03-02T06:51:46.831Z,1.90
2023-03-02T06:57:02.593Z,1.80
2023-03-02T07:02:18.202Z,1.80
2023-03-02T07:07:33.764Z,1.80
2023-03-02T07:12:49.557Z,2.00
2023-03-02T07:18:05.096Z,1.90
2023-03-02T07:23:20.913Z,2.10
2023-03-02T07:28:39.701Z,2.20
2023-03-02T07:33:55.195Z,2.20
2023-03-02T07:39:10.664Z,2.40
2023-03-02T07:44:26.222Z,2.40
2023-03-02T07:49:41.775Z,2.40
2023-03-02T07:54:57.969Z,2.40
2023-03-02T08:00:13.985Z,2.50
2023-03-02T08:05:29.404Z,2.60
2023-03-02T08:10:45.027Z,2.40
2023-03-02T08:16:02.165Z,2.30
2023-03-02T08:21:20.093Z,2.70
2023-03-02T08:26:35.552Z,2.60
2023-03-02T08:31:51.670Z,2.50
2023-03-02T08:37:07.403Z,2.30
2023-03-02T08:42:22.850Z,2.70
2023-03-02T08:47:38.495Z,2.90
2023-03-02T08:52:54.389Z,2.80
2023-03-02T08:58:09.772Z,3.20
2023-03-02T09:03:25.131Z,3.00
2023-03-02T09:08:40.974Z,3.00
2023-03-02T09:13:56.426Z,3.30
2023-03-02T09:19:13.944Z,3.50
2023-03-02T09:24:29.338Z,3.70
2023-03-02T09:29:44.704Z,3.60
2023-03-02T09:35:00.585Z,3.90
2023-03-02T09:40:21.858Z,3.70
2023-03-02T09:45:55.657Z,3.80
2023-03-02T09:51:33.435Z,3.90
2023-03-02T09:56:54.645Z,4.00
2023-03-02T10:02:22.146Z,4.20
2023-03-02T10:07:39.244Z,4.10
2023-03-02T10:13:27.368Z,4.30
2023-03-02T10:18:49.735Z,4.60
2023-03-02T10:24:35.274Z,4.40
2023-03-02T10:30:03.760Z,4.40
2023-03-02T10:35:23.403Z,4.70
2023-03-02T10:40:43.519Z,5.10
2023-03-02T10:46:11.369Z,5.40
2023-03-02T10:51:30.755Z,6.00
2023-03-02T10:56:52.455Z,5.40
2023-03-02T11:02:17.463Z,5.60
2023-03-02T11:07:33.413Z,5.20
2023-03-02T11:12:51.343Z,5.60
2023-03-02T11:18:11.987Z,6.00
2023-03-02T11:23:41.453Z,5.60
2023-03-02T11:29:03.024Z,5.40
2023-03-02T11:34:59.130Z,5.50
2023-03-02T11:40:27.037Z,5.40
2023-03-02T11:45:48.565Z,5.20
2023-03-02T11:51:13.643Z,5.30
2023-03-02T11:56:33.714Z,5.50
2023-03-02T12:01:53.168Z,5.30
2023-03-02T12:07:24.970Z,5.40
2023-03-02T12:12:58.035Z,5.60
2023-03-02T12:18:22.973Z,6.10
2023-03-02T12:23:47.646Z,6.80
2023-03-02T12:29:24.700Z,6.70
2023-03-02T12:34:51.428Z,7.30
2023-03-02T12:40:39.274Z,7.20
2023-03-02T12:46:33.631Z,6.60
2023-03-02T12:51:54.243Z,6.10
2023-03-02T12:57:18.840Z,6.40
2023-03-02T13:02:36.572Z,6.30
2023-03-02T13:08:06.461Z,6.30
2023-03-02T13:13:42.476Z,6.90
2023-03-02T13:19:06.407Z,6.60
2023-03-02T13:24:44.866Z,6.70
2023-03-02T13:30:24.902Z,6.30
2023-03-02T13:35:47.724Z,6.40
2023-03-02T13:41:04.174Z,7.40
2023-03-02T13:46:20.428Z,7.20
2023-03-02T13:51:40.399Z,7.50
2023-03-02T13:56:58.635Z,7.90
2023-03-02T14:02:27.132Z,8.10
2023-03-02T14:07:42.640Z,7.70
2023-03-02T14:13:25.602Z,7.10
2023-03-02T14:18:45.129Z,6.70
2023-03-02T14:24:00.792Z,7.30
2023-03-02T14:29:31.950Z,6.40
2023-03-02T14:34:48.120Z,6.40
2023-03-02T14:40:04.147Z,6.80
2023-03-02T14:45:21.578Z,6.60
2023-03-02T14:50:42.344Z,6.50
2023-03-02T14:55:58.256Z,6.70
2023-03-02T15:01:14.043Z,6.50
2023-03-02T15:06:33.432Z,6.20
2023-03-02T15:11:49.414Z,6.10
2023-03-02T15:17:05.707Z,6.20
2023-03-02T15:22:21.314Z,6.30
2023-03-02T15:27:36.954Z,6.30
2023-03-02T15:32:54.998Z,6.20
2023-03-02T15:38:11.442Z,6.10
2023-03-02T15:43:27.604Z,6.00
2023-03-02T15:48:43.452Z,5.80
2023-03-02T15:53:59.601Z,5.70
2023-03-02T15:59:16.347Z,5.60
2023-03-02T16:04:33.784Z,5.40
2023-03-02T16:09:49.417Z,5.40
2023-03-02T16:15:06.272Z,5.50
2023-03-02T16:20:21.671Z,5.60
2023-03-02T16:25:43.618Z,5.40
2023-03-02T16:31:07.926Z,5.40
2023-03-02T16:36:23.856Z,5.40
2023-03-02T16:41:42.470Z,5.40
2023-03-02T16:46:58.163Z,5.30
2023-03-02T16:52:14.054Z,5.30
2023-03-02T16:57:29.614Z,5.10
2023-03-02T17:02:46.493Z,4.80
2023-03-02T17:08:03.025Z,4.60
2023-03-02T17:13:18.780Z,4.50
2023-03-02T17:18:34.947Z,4.70
2023-03-02T17:23:50.618Z,4.70
2023-03-02T17:29:08.088Z,4.80
2023-03-02T17:34:23.566Z,4.80
2023-03-02T17:39:39.125Z,4.60
2023-03-02T17:44:54.855Z,4.40
2023-03-02T17:50:12.188Z,4.30
2023-03-02T17:55:27.869Z,4.20
2023-03-02T18:00:43.809Z,4.10
2023-03-02T18:06:00.111Z,4.20
2023-03-02T18:11:21.476Z,4.10
2023-03-02T18:16:37.584Z,4.00
2023-03-02T18:21:54.328Z,4.00
2023-03-02T18:27:09.949Z,3.90
2023-03-02T18:32:26.154Z,3.90
2023-03-02T18:37:42.068Z,3.90
2023-03-02T18:42:58.163Z,4.00
2023-03-02T18:48:13.988Z,4.00
2023-03-02T18:53:29.941Z,4.00
2023-03-02T18:58:45.940Z,4.10
2023-03-02T19:04:02.482Z,4.10
2023-03-02T19:09:18.081Z,4.00
2023-03-02T19:14:35.430Z,4.10
2023-03-02T19:19:51.588Z,3.80
2023-03-02T19:25:08.029Z,3.70
2023-03-02T19:30:27.003Z,3.60
2023-03-02T19:35:43.550Z,3.70
2023-03-02T19:41:00.583Z,3.90
2023-03-02T19:46:17.795Z,4.00
2023-03-02T19:51:33.551Z,4.00
2023-03-02T19:56:53.755Z,3.90
2023-03-02T20:02:09.539Z,3.70
2023-03-02T20:07:25.428Z,3.60
2023-03-02T20:12:41.439Z,3.60
2023-03-02T20:17:59.575Z,3.50
2023-03-02T20:23:16.234Z,3.50
2023-03-02T20:28:33.220Z,3.60
2023-03-02T20:33:52.897Z,3.70
2023-03-02T20:39:30.960Z,3.70
2023-03-02T20:44:47.041Z,3.60
2023-03-02T20:50:06.360Z,3.60
2023-03-02T20:55:22.100Z,3.30
2023-03-02T21:00:39.711Z,3.30
2023-03-02T21:05:56.708Z,3.60
2023-03-02T21:11:16.588Z,3.60
2023-03-02T21:16:37.389Z,3.60
2023-03-02T21:21:55.535Z,3.60
2023-03-02T21:27:11.500Z,3.60
2023-03-02T21:32:27.448Z,3.60
2023-03-02T21:37:44.714Z,3.60
2023-03-02T21:43:02.016Z,3.40
2023-03-02T21:48:18.117Z,3.20
2023-03-02T21:53:34.594Z,3.10
2023-03-02T21:58:53.057Z,3.20
2023-03-02T22:04:08.564Z,3.40
2023-03-02T22:09:24.021Z,3.40
2023-03-02T22:14:39.922Z,3.40
2023-03-02T22:19:55.613Z,3.30
2023-03-02T22:25:17.582Z,3.20
2023-03-02T22:30:33.439Z,3.40
2023-03-02T22:35:51.012Z,3.40
2023-03-02T22:41:13.302Z,3.50
2023-03-02T22:46:28.962Z,3.30
2023-03-02T22:51:45.493Z,3.30
2023-03-02T22:57:03.297Z,3.30
2023-03-02T23:02:22.658Z,3.30
2023-03-02T23:07:38.251Z,3.30
2023-03-02T23:12:53.970Z,3.30
2023-03-02T23:18:23.196Z,3.30
2023-03-02T23:23:39.071Z,3.30
2023-03-02T23:28:55.111Z,3.50
2023-03-02T23:34:12.027Z,3.30
2023-03-02T23:39:27.747Z,3.20
2023-03-02T23:44:43.720Z,3.20
2023-03-02T23:49:59.828Z,3.20
2023-03-02T23:55:15.695Z,3.10
